sensor_id;sensor_type;location;lat;lon;timestamp;P1;durP1;ratioP1;P2;durP2;ratioP2
67026;SDS011;53933;52.142;11.738;2022-08-21T00:00:50;4.05;;;2.28;;
67026;SDS011;53933;52.142;11.738;2022-08-21T00:03:17;6.05;;;2.45;;
67026;SDS011;53933;52.142;11.738;2022-08-21T00:05:46;7.53;;;1.92;;
67026;SDS011;53933;52.142;11.738;2022-08-21T00:08:15;6.28;;;1.98;;
67026;SDS011;53933;52.142;11.738;2022-08-21T00:10:42;5.97;;;2.28;;
67026;SDS011;53933;52.142;11.738;2022-08-21T00:13:12;4.53;;;2.20;;
67026;SDS011;53933;52.142;11.738;2022-08-21T00:15:39;3.08;;;2.00;;
67026;SDS011;53933;52.142;11.738;2022-08-21T00:18:07;4.43;;;2.00;;
67026;SDS011;53933;52.142;11.738;2022-08-21T00:20:35;17.52;;;3.15;;
67026;SDS011;53933;52.142;11.738;2022-08-21T00:23:03;28.45;;;3.65;;
67026;SDS011;53933;52.142;11.738;2022-08-21T00:25:30;31.48;;;5.60;;
67026;SDS011;53933;52.142;11.738;2022-08-21T00:27:57;21.20;;;4.15;;
67026;SDS011;53933;52.142;11.738;2022-08-21T00:30:25;30.23;;;3.83;;
67026;SDS011;53933;52.142;11.738;2022-08-21T00:32:52;15.75;;;3.20;;
67026;SDS011;53933;52.142;11.738;2022-08-21T00:35:22;42.55;;;4.13;;
67026;SDS011;53933;52.142;11.738;2022-08-21T00:37:51;18.23;;;3.17;;
67026;SDS011;53933;52.142;11.738;2022-08-21T00:40:19;18.52;;;3.50;;
67026;SDS011;53933;52.142;11.738;2022-08-21T00:42:48;19.98;;;3.30;;
67026;SDS011;53933;52.142;11.738;2022-08-21T00:45:15;9.20;;;2.75;;
67026;SDS011;53933;52.142;11.738;2022-08-21T00:47:43;18.52;;;3.50;;
67026;SDS011;53933;52.142;11.738;2022-08-21T00:50:10;13.35;;;3.17;;
67026;SDS011;53933;52.142;11.738;2022-08-21T00:52:37;14.70;;;2.83;;
67026;SDS011;53933;52.142;11.738;2022-08-21T00:55:06;13.45;;;2.78;;
67026;SDS011;53933;52.142;11.738;2022-08-21T00:57:36;7.93;;;2.50;;
67026;SDS011;53933;52.142;11.738;2022-08-21T01:00:07;19.17;;;2.63;;
67026;SDS011;53933;52.142;11.738;2022-08-21T01:02:37;11.98;;;2.65;;
67026;SDS011;53933;52.142;11.738;2022-08-21T01:05:06;9.30;;;2.70;;
67026;SDS011;53933;52.142;11.738;2022-08-21T01:07:33;13.77;;;2.33;;
67026;SDS011;53933;52.142;11.738;2022-08-21T01:10:00;10.55;;;1.90;;
67026;SDS011;53933;52.142;11.738;2022-08-21T01:12:27;6.72;;;2.08;;
67026;SDS011;53933;52.142;11.738;2022-08-21T01:14:54;4.97;;;2.33;;
67026;SDS011;53933;52.142;11.738;2022-08-21T01:17:20;4.97;;;2.20;;
67026;SDS011;53933;52.142;11.738;2022-08-21T01:19:47;18.58;;;2.63;;
67026;SDS011;53933;52.142;11.738;2022-08-21T01:22:15;11.30;;;2.45;;
67026;SDS011;53933;52.142;11.738;2022-08-21T01:24:42;12.63;;;2.55;;
67026;SDS011;53933;52.142;11.738;2022-08-21T01:27:08;9.52;;;2.30;;
67026;SDS011;53933;52.142;11.738;2022-08-21T01:29:36;12.20;;;2.60;;
67026;SDS011;53933;52.142;11.738;2022-08-21T01:32:07;10.18;;;2.40;;
67026;SDS011;53933;52.142;11.738;2022-08-21T01:34:43;9.18;;;2.15;;
67026;SDS011;53933;52.142;11.738;2022-08-21T01:37:11;9.68;;;2.10;;
67026;SDS011;53933;52.142;11.738;2022-08-21T01:39:41;8.15;;;2.15;;
67026;SDS011;53933;52.142;11.738;2022-08-21T01:42:08;9.75;;;2.58;;
67026;SDS011;53933;52.142;11.738;2022-08-21T01:44:35;10.65;;;2.35;;
67026;SDS011;53933;52.142;11.738;2022-08-21T01:47:03;6.28;;;2.28;;
67026;SDS011;53933;52.142;11.738;2022-08-21T01:49:32;7.05;;;2.30;;
67026;SDS011;53933;52.142;11.738;2022-08-21T01:51:59;20.65;;;3.30;;
67026;SDS011;53933;52.142;11.738;2022-08-21T01:54:26;9.95;;;2.17;;
67026;SDS011;53933;52.142;11.738;2022-08-21T01:56:54;7.05;;;2.10;;
67026;SDS011;53933;52.142;11.738;2022-08-21T01:59:22;7.55;;;2.28;;
67026;SDS011;53933;52.142;11.738;2022-08-21T02:01:49;10.57;;;2.42;;
67026;SDS011;53933;52.142;11.738;2022-08-21T02:04:17;4.63;;;2.05;;
67026;SDS011;53933;52.142;11.738;2022-08-21T02:06:43;11.32;;;2.05;;
67026;SDS011;53933;52.142;11.738;2022-08-21T02:09:10;6.38;;;1.80;;
67026;SDS011;53933;52.142;11.738;2022-08-21T02:11:39;6.95;;;1.98;;
67026;SDS011;53933;52.142;11.738;2022-08-21T02:14:08;7.03;;;2.33;;
67026;SDS011;53933;52.142;11.738;2022-08-21T02:16:34;13.63;;;2.20;;
67026;SDS011;53933;52.142;11.738;2022-08-21T02:19:01;6.75;;;2.15;;
67026;SDS011;53933;52.142;11.738;2022-08-21T02:21:28;10.55;;;2.53;;
67026;SDS011;53933;52.142;11.738;2022-08-21T02:23:54;5.20;;;2.80;;
67026;SDS011;53933;52.142;11.738;2022-08-21T02:26:21;6.35;;;2.92;;
67026;SDS011;53933;52.142;11.738;2022-08-21T02:28:47;6.03;;;2.78;;
67026;SDS011;53933;52.142;11.738;2022-08-21T02:31:15;10.27;;;3.33;;
67026;SDS011;53933;52.142;11.738;2022-08-21T02:33:42;8.88;;;3.08;;
67026;SDS011;53933;52.142;11.738;2022-08-21T02:36:09;7.05;;;2.60;;
67026;SDS011;53933;52.142;11.738;2022-08-21T02:38:37;7.30;;;2.45;;
67026;SDS011;53933;52.142;11.738;2022-08-21T02:41:05;8.30;;;2.50;;
67026;SDS011;53933;52.142;11.738;2022-08-21T02:43:33;3.88;;;2.67;;
67026;SDS011;53933;52.142;11.738;2022-08-21T02:46:00;5.85;;;3.15;;
67026;SDS011;53933;52.142;11.738;2022-08-21T02:48:30;7.20;;;2.85;;
67026;SDS011;53933;52.142;11.738;2022-08-21T02:50:58;6.88;;;3.08;;
67026;SDS011;53933;52.142;11.738;2022-08-21T02:53:27;6.85;;;2.40;;
67026;SDS011;53933;52.142;11.738;2022-08-21T02:55:56;12.13;;;2.88;;
67026;SDS011;53933;52.142;11.738;2022-08-21T02:58:25;7.05;;;2.95;;
67026;SDS011;53933;52.142;11.738;2022-08-21T03:00:53;9.35;;;2.47;;
67026;SDS011;53933;52.142;11.738;2022-08-21T03:03:20;5.97;;;2.30;;
67026;SDS011;53933;52.142;11.738;2022-08-21T03:05:48;5.30;;;2.83;;
67026;SDS011;53933;52.142;11.738;2022-08-21T03:08:15;6.38;;;2.40;;
67026;SDS011;53933;52.142;11.738;2022-08-21T03:10:43;7.35;;;2.50;;
67026;SDS011;53933;52.142;11.738;2022-08-21T03:13:11;18.15;;;3.10;;
67026;SDS011;53933;52.142;11.738;2022-08-21T03:15:39;18.08;;;3.67;;
67026;SDS011;53933;52.142;11.738;2022-08-21T03:18:06;10.65;;;2.72;;
67026;SDS011;53933;52.142;11.738;2022-08-21T03:20:34;10.93;;;2.63;;
67026;SDS011;53933;52.142;11.738;2022-08-21T03:23:03;11.00;;;3.05;;
67026;SDS011;53933;52.142;11.738;2022-08-21T03:25:30;6.80;;;2.78;;
67026;SDS011;53933;52.142;11.738;2022-08-21T03:27:58;15.15;;;3.03;;
67026;SDS011;53933;52.142;11.738;2022-08-21T03:30:24;12.70;;;2.88;;
67026;SDS011;53933;52.142;11.738;2022-08-21T03:32:51;14.80;;;2.70;;
67026;SDS011;53933;52.142;11.738;2022-08-21T03:35:19;24.17;;;3.17;;
67026;SDS011;53933;52.142;11.738;2022-08-21T03:37:46;21.27;;;3.88;;
67026;SDS011;53933;52.142;11.738;2022-08-21T03:40:15;10.02;;;2.70;;
67026;SDS011;53933;52.142;11.738;2022-08-21T03:42:43;11.77;;;2.60;;
67026;SDS011;53933;52.142;11.738;2022-08-21T03:45:12;15.52;;;3.42;;
67026;SDS011;53933;52.142;11.738;2022-08-21T03:47:49;13.50;;;2.75;;
67026;SDS011;53933;52.142;11.738;2022-08-21T03:50:17;13.25;;;2.50;;
67026;SDS011;53933;52.142;11.738;2022-08-21T03:52:43;11.60;;;2.80;;
67026;SDS011;53933;52.142;11.738;2022-08-21T03:55:10;22.20;;;2.75;;
67026;SDS011;53933;52.142;11.738;2022-08-21T03:57:38;15.02;;;3.38;;
67026;SDS011;53933;52.142;11.738;2022-08-21T04:00:05;13.40;;;2.70;;
67026;SDS011;53933;52.142;11.738;2022-08-21T04:02:34;11.52;;;3.50;;
67026;SDS011;53933;52.142;11.738;2022-08-21T04:05:00;13.75;;;2.90;;
67026;SDS011;53933;52.142;11.738;2022-08-21T04:07:27;8.45;;;3.03;;
67026;SDS011;53933;52.142;11.738;2022-08-21T04:09:54;9.40;;;2.50;;
67026;SDS011;53933;52.142;11.738;2022-08-21T04:12:20;7.88;;;2.55;;
67026;SDS011;53933;52.142;11.738;2022-08-21T04:14:48;11.23;;;2.60;;
67026;SDS011;53933;52.142;11.738;2022-08-21T04:17:16;9.45;;;2.47;;
67026;SDS011;53933;52.142;11.738;2022-08-21T04:19:43;5.82;;;2.58;;
67026;SDS011;53933;52.142;11.738;2022-08-21T04:22:09;7.10;;;2.28;;
67026;SDS011;53933;52.142;11.738;2022-08-21T04:24:36;5.38;;;1.77;;
67026;SDS011;53933;52.142;11.738;2022-08-21T04:27:03;4.55;;;1.85;;
67026;SDS011;53933;52.142;11.738;2022-08-21T04:29:29;5.00;;;2.50;;
67026;SDS011;53933;52.142;11.738;2022-08-21T04:31:57;3.45;;;2.20;;
67026;SDS011;53933;52.142;11.738;2022-08-21T04:34:24;10.93;;;2.20;;
67026;SDS011;53933;52.142;11.738;2022-08-21T04:36:51;8.25;;;2.03;;
67026;SDS011;53933;52.142;11.738;2022-08-21T04:39:17;5.70;;;2.40;;
67026;SDS011;53933;52.142;11.738;2022-08-21T04:41:44;7.30;;;2.08;;
67026;SDS011;53933;52.142;11.738;2022-08-21T04:44:10;4.28;;;2.20;;
67026;SDS011;53933;52.142;11.738;2022-08-21T04:46:37;5.50;;;2.30;;
67026;SDS011;53933;52.142;11.738;2022-08-21T04:49:05;8.15;;;1.90;;
67026;SDS011;53933;52.142;11.738;2022-08-21T04:51:32;10.90;;;2.42;;
67026;SDS011;53933;52.142;11.738;2022-08-21T04:54:03;6.72;;;2.22;;
67026;SDS011;53933;52.142;11.738;2022-08-21T04:56:35;3.85;;;2.10;;
67026;SDS011;53933;52.142;11.738;2022-08-21T04:59:05;6.95;;;2.33;;
67026;SDS011;53933;52.142;11.738;2022-08-21T05:01:38;18.77;;;2.92;;
67026;SDS011;53933;52.142;11.738;2022-08-21T05:04:08;6.07;;;2.17;;
67026;SDS011;53933;52.142;11.738;2022-08-21T05:06:37;7.60;;;2.28;;
67026;SDS011;53933;52.142;11.738;2022-08-21T05:09:07;12.13;;;2.30;;
67026;SDS011;53933;52.142;11.738;2022-08-21T05:11:35;10.70;;;2.35;;
67026;SDS011;53933;52.142;11.738;2022-08-21T05:14:02;6.43;;;2.08;;
67026;SDS011;53933;52.142;11.738;2022-08-21T05:16:29;6.18;;;2.10;;
67026;SDS011;53933;52.142;11.738;2022-08-21T05:18:56;13.90;;;2.60;;
67026;SDS011;53933;52.142;11.738;2022-08-21T05:21:24;4.75;;;1.88;;
67026;SDS011;53933;52.142;11.738;2022-08-21T05:23:51;9.35;;;2.10;;
67026;SDS011;53933;52.142;11.738;2022-08-21T05:26:18;4.80;;;1.90;;
67026;SDS011;53933;52.142;11.738;2022-08-21T05:28:44;8.30;;;2.42;;
67026;SDS011;53933;52.142;11.738;2022-08-21T05:31:11;4.53;;;2.22;;
67026;SDS011;53933;52.142;11.738;2022-08-21T05:33:37;5.82;;;2.20;;
67026;SDS011;53933;52.142;11.738;2022-08-21T05:36:04;10.13;;;2.10;;
67026;SDS011;53933;52.142;11.738;2022-08-21T05:38:32;6.25;;;1.90;;
67026;SDS011;53933;52.142;11.738;2022-08-21T05:40:59;8.48;;;2.35;;
67026;SDS011;53933;52.142;11.738;2022-08-21T05:43:25;7.55;;;2.22;;
67026;SDS011;53933;52.142;11.738;2022-08-21T05:45:52;4.50;;;2.10;;
67026;SDS011;53933;52.142;11.738;2022-08-21T05:48:20;6.30;;;1.90;;
67026;SDS011;53933;52.142;11.738;2022-08-21T05:50:49;6.82;;;1.98;;
67026;SDS011;53933;52.142;11.738;2022-08-21T05:53:18;12.65;;;2.33;;
67026;SDS011;53933;52.142;11.738;2022-08-21T05:55:47;5.82;;;2.13;;
67026;SDS011;53933;52.142;11.738;2022-08-21T05:58:14;10.38;;;2.60;;
67026;SDS011;53933;52.142;11.738;2022-08-21T06:00:42;12.73;;;2.22;;
67026;SDS011;53933;52.142;11.738;2022-08-21T06:03:11;9.48;;;2.05;;
67026;SDS011;53933;52.142;11.738;2022-08-21T06:05:38;10.48;;;1.80;;
67026;SDS011;53933;52.142;11.738;2022-08-21T06:08:04;10.38;;;2.85;;
67026;SDS011;53933;52.142;11.738;2022-08-21T06:10:31;8.57;;;2.38;;
67026;SDS011;53933;52.142;11.738;2022-08-21T06:12:59;8.82;;;2.47;;
67026;SDS011;53933;52.142;11.738;2022-08-21T06:15:26;6.00;;;2.13;;
67026;SDS011;53933;52.142;11.738;2022-08-21T06:17:52;8.20;;;2.47;;
67026;SDS011;53933;52.142;11.738;2022-08-21T06:20:20;7.47;;;2.20;;
67026;SDS011;53933;52.142;11.738;2022-08-21T06:22:48;7.15;;;1.98;;
67026;SDS011;53933;52.142;11.738;2022-08-21T06:25:15;6.68;;;2.35;;
67026;SDS011;53933;52.142;11.738;2022-08-21T06:27:41;3.28;;;1.60;;
67026;SDS011;53933;52.142;11.738;2022-08-21T06:30:10;8.90;;;2.15;;
67026;SDS011;53933;52.142;11.738;2022-08-21T06:32:37;4.03;;;2.10;;
67026;SDS011;53933;52.142;11.738;2022-08-21T06:35:04;9.48;;;2.20;;
67026;SDS011;53933;52.142;11.738;2022-08-21T06:37:32;11.15;;;1.98;;
67026;SDS011;53933;52.142;11.738;2022-08-21T06:39:59;7.43;;;2.13;;
67026;SDS011;53933;52.142;11.738;2022-08-21T06:42:25;9.88;;;1.98;;
67026;SDS011;53933;52.142;11.738;2022-08-21T06:44:53;4.18;;;1.60;;
67026;SDS011;53933;52.142;11.738;2022-08-21T06:47:21;2.75;;;1.48;;
67026;SDS011;53933;52.142;11.738;2022-08-21T06:49:47;7.47;;;1.85;;
67026;SDS011;53933;52.142;11.738;2022-08-21T06:52:14;5.40;;;1.58;;
67026;SDS011;53933;52.142;11.738;2022-08-21T06:54:40;6.47;;;1.90;;
67026;SDS011;53933;52.142;11.738;2022-08-21T06:57:07;4.97;;;1.75;;
67026;SDS011;53933;52.142;11.738;2022-08-21T06:59:34;5.10;;;1.80;;
67026;SDS011;53933;52.142;11.738;2022-08-21T07:02:01;4.45;;;1.63;;
67026;SDS011;53933;52.142;11.738;2022-08-21T07:04:29;5.38;;;1.55;;
67026;SDS011;53933;52.142;11.738;2022-08-21T07:06:55;5.25;;;1.60;;
67026;SDS011;53933;52.142;11.738;2022-08-21T07:09:22;2.25;;;1.40;;
67026;SDS011;53933;52.142;11.738;2022-08-21T07:11:50;4.40;;;1.77;;
67026;SDS011;53933;52.142;11.738;2022-08-21T07:14:17;4.68;;;1.95;;
67026;SDS011;53933;52.142;11.738;2022-08-21T07:16:44;3.00;;;1.70;;
67026;SDS011;53933;52.142;11.738;2022-08-21T07:19:11;2.45;;;1.40;;
67026;SDS011;53933;52.142;11.738;2022-08-21T07:21:39;8.55;;;1.98;;
67026;SDS011;53933;52.142;11.738;2022-08-21T07:24:05;11.65;;;2.08;;
67026;SDS011;53933;52.142;11.738;2022-08-21T07:26:32;9.13;;;2.05;;
67026;SDS011;53933;52.142;11.738;2022-08-21T07:28:59;11.57;;;2.30;;
67026;SDS011;53933;52.142;11.738;2022-08-21T07:31:25;9.48;;;1.60;;
67026;SDS011;53933;52.142;11.738;2022-08-21T07:33:52;20.40;;;2.42;;
67026;SDS011;53933;52.142;11.738;2022-08-21T07:36:19;9.50;;;2.20;;
67026;SDS011;53933;52.142;11.738;2022-08-21T07:38:47;7.13;;;2.08;;
67026;SDS011;53933;52.142;11.738;2022-08-21T07:41:15;14.20;;;1.80;;
67026;SDS011;53933;52.142;11.738;2022-08-21T07:43:43;11.32;;;1.95;;
67026;SDS011;53933;52.142;11.738;2022-08-21T07:46:11;9.07;;;2.10;;
67026;SDS011;53933;52.142;11.738;2022-08-21T07:48:38;7.72;;;1.90;;
67026;SDS011;53933;52.142;11.738;2022-08-21T07:51:06;4.45;;;1.33;;
67026;SDS011;53933;52.142;11.738;2022-08-21T07:53:34;2.60;;;1.40;;
67026;SDS011;53933;52.142;11.738;2022-08-21T07:56:03;8.00;;;1.92;;
67026;SDS011;53933;52.142;11.738;2022-08-21T07:58:30;7.90;;;1.85;;
67026;SDS011;53933;52.142;11.738;2022-08-21T08:00:57;7.00;;;1.65;;
67026;SDS011;53933;52.142;11.738;2022-08-21T08:03:25;4.85;;;1.83;;
67026;SDS011;53933;52.142;11.738;2022-08-21T08:05:51;5.25;;;1.58;;
67026;SDS011;53933;52.142;11.738;2022-08-21T08:08:18;7.95;;;1.83;;
67026;SDS011;53933;52.142;11.738;2022-08-21T08:10:45;8.52;;;1.60;;
67026;SDS011;53933;52.142;11.738;2022-08-21T08:13:13;6.80;;;1.70;;
67026;SDS011;53933;52.142;11.738;2022-08-21T08:15:39;14.82;;;2.13;;
67026;SDS011;53933;52.142;11.738;2022-08-21T08:18:06;7.93;;;1.77;;
67026;SDS011;53933;52.142;11.738;2022-08-21T08:20:33;4.68;;;1.98;;
67026;SDS011;53933;52.142;11.738;2022-08-21T08:22:59;7.75;;;1.75;;
67026;SDS011;53933;52.142;11.738;2022-08-21T08:25:26;8.98;;;2.20;;
67026;SDS011;53933;52.142;11.738;2022-08-21T08:27:53;6.88;;;1.75;;
67026;SDS011;53933;52.142;11.738;2022-08-21T08:30:21;5.82;;;1.70;;
67026;SDS011;53933;52.142;11.738;2022-08-21T08:32:48;8.77;;;1.73;;
67026;SDS011;53933;52.142;11.738;2022-08-21T08:35:15;10.65;;;2.00;;
67026;SDS011;53933;52.142;11.738;2022-08-21T08:37:42;14.27;;;2.58;;
67026;SDS011;53933;52.142;11.738;2022-08-21T08:40:11;13.38;;;2.83;;
67026;SDS011;53933;52.142;11.738;2022-08-21T08:42:44;6.60;;;1.90;;
67026;SDS011;53933;52.142;11.738;2022-08-21T08:45:13;10.48;;;1.80;;
67026;SDS011;53933;52.142;11.738;2022-08-21T08:47:45;10.35;;;2.45;;
67026;SDS011;53933;52.142;11.738;2022-08-21T08:50:16;5.22;;;1.60;;
67026;SDS011;53933;52.142;11.738;2022-08-21T08:52:47;4.30;;;1.67;;
67026;SDS011;53933;52.142;11.738;2022-08-21T08:55:18;9.25;;;2.20;;
67026;SDS011;53933;52.142;11.738;2022-08-21T08:57:49;13.63;;;2.22;;
67026;SDS011;53933;52.142;11.738;2022-08-21T09:00:18;7.50;;;2.00;;
67026;SDS011;53933;52.142;11.738;2022-08-21T09:02:48;9.02;;;2.25;;
67026;SDS011;53933;52.142;11.738;2022-08-21T09:05:23;9.98;;;2.53;;
67026;SDS011;53933;52.142;11.738;2022-08-21T09:07:56;10.77;;;2.38;;
67026;SDS011;53933;52.142;11.738;2022-08-21T09:10:44;6.10;;;1.88;;
67026;SDS011;53933;52.142;11.738;2022-08-21T09:13:18;8.00;;;1.45;;
67026;SDS011;53933;52.142;11.738;2022-08-21T09:15:51;7.72;;;2.08;;
67026;SDS011;53933;52.142;11.738;2022-08-21T09:18:26;5.03;;;1.95;;
67026;SDS011;53933;52.142;11.738;2022-08-21T09:21:04;3.00;;;1.73;;
67026;SDS011;53933;52.142;11.738;2022-08-21T09:23:42;3.00;;;1.50;;
67026;SDS011;53933;52.142;11.738;2022-08-21T09:26:15;4.63;;;1.70;;
67026;SDS011;53933;52.142;11.738;2022-08-21T09:28:43;4.97;;;1.45;;
67026;SDS011;53933;52.142;11.738;2022-08-21T09:31:15;3.30;;;1.50;;
67026;SDS011;53933;52.142;11.738;2022-08-21T09:33:49;5.82;;;2.35;;
67026;SDS011;53933;52.142;11.738;2022-08-21T09:36:22;4.28;;;1.63;;
67026;SDS011;53933;52.142;11.738;2022-08-21T09:38:52;5.55;;;1.55;;
67026;SDS011;53933;52.142;11.738;2022-08-21T09:41:27;3.30;;;1.35;;
67026;SDS011;53933;52.142;11.738;2022-08-21T09:43:55;3.83;;;1.70;;
67026;SDS011;53933;52.142;11.738;2022-08-21T09:46:23;7.43;;;2.30;;
67026;SDS011;53933;52.142;11.738;2022-08-21T09:48:52;3.40;;;1.58;;
67026;SDS011;53933;52.142;11.738;2022-08-21T09:51:22;4.88;;;1.80;;
67026;SDS011;53933;52.142;11.738;2022-08-21T09:53:51;3.53;;;1.45;;
67026;SDS011;53933;52.142;11.738;2022-08-21T09:56:21;4.57;;;1.88;;
67026;SDS011;53933;52.142;11.738;2022-08-21T09:59:14;4.97;;;2.03;;
67026;SDS011;53933;52.142;11.738;2022-08-21T10:01:44;7.38;;;2.30;;
67026;SDS011;53933;52.142;11.738;2022-08-21T10:04:14;5.82;;;1.67;;
67026;SDS011;53933;52.142;11.738;2022-08-21T10:06:41;7.00;;;2.20;;
67026;SDS011;53933;52.142;11.738;2022-08-21T10:09:09;3.80;;;1.50;;
67026;SDS011;53933;52.142;11.738;2022-08-21T10:11:38;5.30;;;1.80;;
67026;SDS011;53933;52.142;11.738;2022-08-21T10:14:09;3.70;;;1.65;;
67026;SDS011;53933;52.142;11.738;2022-08-21T10:16:45;11.40;;;2.30;;
67026;SDS011;53933;52.142;11.738;2022-08-21T10:19:22;9.05;;;2.00;;
67026;SDS011;53933;52.142;11.738;2022-08-21T10:21:58;9.18;;;1.85;;
67026;SDS011;53933;52.142;11.738;2022-08-21T10:24:29;14.07;;;1.88;;
67026;SDS011;53933;52.142;11.738;2022-08-21T10:27:02;7.20;;;1.90;;
67026;SDS011;53933;52.142;11.738;2022-08-21T10:29:42;7.55;;;2.05;;
67026;SDS011;53933;52.142;11.738;2022-08-21T10:32:16;6.13;;;1.75;;
67026;SDS011;53933;52.142;11.738;2022-08-21T10:35:22;9.48;;;2.33;;
67026;SDS011;53933;52.142;11.738;2022-08-21T10:38:01;4.82;;;1.60;;
67026;SDS011;53933;52.142;11.738;2022-08-21T10:40:56;9.43;;;1.90;;
67026;SDS011;53933;52.142;11.738;2022-08-21T10:43:32;7.93;;;1.92;;
67026;SDS011;53933;52.142;11.738;2022-08-21T10:46:07;6.60;;;1.75;;
67026;SDS011;53933;52.142;11.738;2022-08-21T10:48:42;9.43;;;1.92;;
67026;SDS011;53933;52.142;11.738;2022-08-21T10:51:16;13.07;;;2.10;;
67026;SDS011;53933;52.142;11.738;2022-08-21T10:53:50;21.40;;;2.88;;
67026;SDS011;53933;52.142;11.738;2022-08-21T10:56:26;21.55;;;2.33;;
67026;SDS011;53933;52.142;11.738;2022-08-21T10:59:00;13.07;;;1.80;;
67026;SDS011;53933;52.142;11.738;2022-08-21T11:01:34;9.43;;;2.30;;
67026;SDS011;53933;52.142;11.738;2022-08-21T11:04:12;9.55;;;1.98;;
67026;SDS011;53933;52.142;11.738;2022-08-21T11:06:46;6.45;;;2.08;;
67026;SDS011;53933;52.142;11.738;2022-08-21T11:09:19;22.90;;;2.00;;
67026;SDS011;53933;52.142;11.738;2022-08-21T11:11:50;6.10;;;1.80;;
67026;SDS011;53933;52.142;11.738;2022-08-21T11:14:23;9.98;;;2.10;;
67026;SDS011;53933;52.142;11.738;2022-08-21T11:16:57;12.18;;;2.15;;
67026;SDS011;53933;52.142;11.738;2022-08-21T11:19:33;5.77;;;2.03;;
67026;SDS011;53933;52.142;11.738;2022-08-21T11:22:08;5.72;;;2.15;;
67026;SDS011;53933;52.142;11.738;2022-08-21T11:24:42;7.38;;;1.80;;
67026;SDS011;53933;52.142;11.738;2022-08-21T11:27:16;5.03;;;1.60;;
67026;SDS011;53933;52.142;11.738;2022-08-21T11:29:47;9.98;;;1.90;;
67026;SDS011;53933;52.142;11.738;2022-08-21T11:32:43;2.10;;;1.70;;
67026;SDS011;53933;52.142;11.738;2022-08-21T11:35:25;3.90;;;2.13;;
67026;SDS011;53933;52.142;11.738;2022-08-21T11:38:03;5.32;;;2.05;;
67026;SDS011;53933;52.142;11.738;2022-08-21T11:40:42;8.68;;;2.15;;
67026;SDS011;53933;52.142;11.738;2022-08-21T11:43:31;8.40;;;2.03;;
67026;SDS011;53933;52.142;11.738;2022-08-21T11:46:07;10.30;;;1.90;;
67026;SDS011;53933;52.142;11.738;2022-08-21T11:48:55;7.05;;;2.30;;
67026;SDS011;53933;52.142;11.738;2022-08-21T11:51:32;5.75;;;2.17;;
67026;SDS011;53933;52.142;11.738;2022-08-21T11:54:05;8.30;;;2.42;;
67026;SDS011;53933;52.142;11.738;2022-08-21T11:56:41;6.40;;;1.92;;
67026;SDS011;53933;52.142;11.738;2022-08-21T11:59:13;3.78;;;1.48;;
67026;SDS011;53933;52.142;11.738;2022-08-21T12:01:46;31.98;;;3.90;;
67026;SDS011;53933;52.142;11.738;2022-08-21T12:04:17;25.38;;;3.28;;
67026;SDS011;53933;52.142;11.738;2022-08-21T12:06:48;4.47;;;1.77;;
67026;SDS011;53933;52.142;11.738;2022-08-21T12:09:29;17.55;;;2.55;;
67026;SDS011;53933;52.142;11.738;2022-08-21T12:12:00;8.95;;;2.00;;
67026;SDS011;53933;52.142;11.738;2022-08-21T12:14:35;8.60;;;2.75;;
67026;SDS011;53933;52.142;11.738;2022-08-21T12:17:04;12.02;;;2.38;;
67026;SDS011;53933;52.142;11.738;2022-08-21T12:19:31;10.65;;;2.55;;
67026;SDS011;53933;52.142;11.738;2022-08-21T12:22:07;6.88;;;2.35;;
67026;SDS011;53933;52.142;11.738;2022-08-21T12:24:38;13.95;;;2.63;;
67026;SDS011;53933;52.142;11.738;2022-08-21T12:27:14;6.00;;;2.20;;
67026;SDS011;53933;52.142;11.738;2022-08-21T12:29:51;8.02;;;2.33;;
67026;SDS011;53933;52.142;11.738;2022-08-21T12:32:23;4.78;;;1.60;;
67026;SDS011;53933;52.142;11.738;2022-08-21T12:34:52;9.52;;;2.33;;
67026;SDS011;53933;52.142;11.738;2022-08-21T12:37:24;6.18;;;2.20;;
67026;SDS011;53933;52.142;11.738;2022-08-21T12:40:03;8.30;;;2.38;;
67026;SDS011;53933;52.142;11.738;2022-08-21T12:45:08;8.20;;;2.47;;
67026;SDS011;53933;52.142;11.738;2022-08-21T12:47:43;4.40;;;1.63;;
67026;SDS011;53933;52.142;11.738;2022-08-21T12:50:17;6.60;;;2.35;;
67026;SDS011;53933;52.142;11.738;2022-08-21T12:52:48;5.07;;;1.92;;
67026;SDS011;53933;52.142;11.738;2022-08-21T12:55:32;5.90;;;2.03;;
67026;SDS011;53933;52.142;11.738;2022-08-21T12:58:00;8.55;;;2.00;;
67026;SDS011;53933;52.142;11.738;2022-08-21T13:00:28;4.68;;;2.10;;
67026;SDS011;53933;52.142;11.738;2022-08-21T13:02:55;5.85;;;2.38;;
67026;SDS011;53933;52.142;11.738;2022-08-21T13:05:27;3.95;;;2.03;;
67026;SDS011;53933;52.142;11.738;2022-08-21T13:07:56;8.73;;;1.80;;
67026;SDS011;53933;52.142;11.738;2022-08-21T13:10:24;3.28;;;1.60;;
67026;SDS011;53933;52.142;11.738;2022-08-21T13:12:55;3.65;;;1.75;;
67026;SDS011;53933;52.142;11.738;2022-08-21T13:15:25;3.63;;;1.50;;
67026;SDS011;53933;52.142;11.738;2022-08-21T13:17:54;2.40;;;1.45;;
67026;SDS011;53933;52.142;11.738;2022-08-21T13:20:27;6.15;;;2.25;;
67026;SDS011;53933;52.142;11.738;2022-08-21T13:22:56;4.10;;;1.90;;
67026;SDS011;53933;52.142;11.738;2022-08-21T13:25:25;4.47;;;2.08;;
67026;SDS011;53933;52.142;11.738;2022-08-21T13:27:59;6.25;;;2.17;;
67026;SDS011;53933;52.142;11.738;2022-08-21T13:30:27;3.15;;;1.50;;
67026;SDS011;53933;52.142;11.738;2022-08-21T13:32:56;3.72;;;1.42;;
67026;SDS011;53933;52.142;11.738;2022-08-21T13:35:27;8.35;;;2.45;;
67026;SDS011;53933;52.142;11.738;2022-08-21T13:37:56;4.15;;;1.92;;
67026;SDS011;53933;52.142;11.738;2022-08-21T13:40:25;4.32;;;2.28;;
67026;SDS011;53933;52.142;11.738;2022-08-21T13:42:54;5.25;;;1.73;;
67026;SDS011;53933;52.142;11.738;2022-08-21T13:45:25;4.78;;;1.80;;
67026;SDS011;53933;52.142;11.738;2022-08-21T13:47:53;6.53;;;1.80;;
67026;SDS011;53933;52.142;11.738;2022-08-21T13:50:22;3.53;;;1.80;;
67026;SDS011;53933;52.142;11.738;2022-08-21T13:52:57;5.38;;;2.05;;
67026;SDS011;53933;52.142;11.738;2022-08-21T13:55:25;5.78;;;2.33;;
67026;SDS011;53933;52.142;11.738;2022-08-21T13:58:01;6.18;;;2.10;;
67026;SDS011;53933;52.142;11.738;2022-08-21T14:00:32;4.80;;;2.08;;
67026;SDS011;53933;52.142;11.738;2022-08-21T14:03:03;4.97;;;1.90;;
67026;SDS011;53933;52.142;11.738;2022-08-21T14:05:32;4.10;;;1.55;;
67026;SDS011;53933;52.142;11.738;2022-08-21T14:08:03;5.72;;;2.08;;
67026;SDS011;53933;52.142;11.738;2022-08-21T14:10:34;7.53;;;2.42;;
67026;SDS011;53933;52.142;11.738;2022-08-21T14:13:03;7.50;;;1.92;;
67026;SDS011;53933;52.142;11.738;2022-08-21T14:15:33;3.15;;;1.60;;
67026;SDS011;53933;52.142;11.738;2022-08-21T14:18:07;4.00;;;2.15;;
67026;SDS011;53933;52.142;11.738;2022-08-21T14:20:38;5.13;;;2.08;;
67026;SDS011;53933;52.142;11.738;2022-08-21T14:23:05;3.40;;;2.20;;
67026;SDS011;53933;52.142;11.738;2022-08-21T14:25:37;6.03;;;2.33;;
67026;SDS011;53933;52.142;11.738;2022-08-21T14:28:12;3.45;;;1.67;;
67026;SDS011;53933;52.142;11.738;2022-08-21T14:30:47;5.00;;;2.17;;
67026;SDS011;53933;52.142;11.738;2022-08-21T14:33:16;2.85;;;1.80;;
67026;SDS011;53933;52.142;11.738;2022-08-21T14:35:47;3.45;;;2.13;;
67026;SDS011;53933;52.142;11.738;2022-08-21T14:38:14;5.05;;;2.13;;
67026;SDS011;53933;52.142;11.738;2022-08-21T14:40:43;4.93;;;1.92;;
67026;SDS011;53933;52.142;11.738;2022-08-21T14:43:10;3.92;;;1.85;;
67026;SDS011;53933;52.142;11.738;2022-08-21T14:45:37;3.55;;;1.63;;
67026;SDS011;53933;52.142;11.738;2022-08-21T14:48:07;5.63;;;1.80;;